Nearby METAR Reports

 

KAVP - Avoca/Wilkes B., Pennsylvania, USA
Distance from station: NE 13mi, 20km
Updated: Sun, 24-Jan-2021 10:54am PST
Clear
Clear
 Wind from NNW
Wind: NNW 14 mph , 22 km/h
Temperature: 28°F , -2°C
Wind Chill: 17°F , -8°C
Dew Point: 9°F , -13°C
Humidity: 43%
Barometer: 30.16 inHg , 1021.3 hPa
Clouds: Clear
Visibility: 10 miles , 16 km
2021/01/24 18:54 KAVP 241854Z 33012KT 10SM CLR M02/M13 A3016 RMK AO2 SLP223 T10221128
KMPO - Mt. Pocono, Pennsylvania, USA
Distance from station: ESE 28mi, 45km
Updated: Sun, 24-Jan-2021 10:53am PST
Clear
Clear
 Wind from WNW
Wind: WNW 14 mph , 22 km/h, Gust: 23 mph , 37 km/h
Temperature: 21°F , -6°C
Wind Chill: 8°F , -13°C
Dew Point: 7°F , -14°C
Humidity: 54%
Barometer: 30.05 inHg , 1017.6 hPa
Clouds: Clear
Visibility: 10 miles , 16 km
2021/01/24 18:53 KMPO 241853Z AUTO 29012G20KT 10SM CLR M06/M14 A3005 RMK AO2 SLP209 T10561144 $
 
KABE - Allentown, Pennsylvania, USA
Distance from station: SSE 46mi, 74km
Updated: Sun, 24-Jan-2021 10:51am PST
Clear
Clear
 Wind from W
Wind: W 10 mph , 17 km/h
Temperature: 32°F , 0°C
Wind Chill: 24°F , -4°C
Dew Point: 7°F , -14°C
Humidity: 34%
Barometer: 30.17 inHg , 1021.7 hPa
Clouds: Clear
Visibility: 10 miles , 16 km
2021/01/24 18:51 KABE 241851Z 27009KT 10SM CLR 00/M14 A3017 RMK AO2 SLP222 T00001139
KXLL - Allentown Queen, Pennsylvania, USA
Distance from station: SSE 50mi, 81km
Updated: Sun, 24-Jan-2021 10:35am PST
Clear
Clear
 Wind from W
Wind: W 9 mph , 15 km/h
Temperature: 32°F , 0°C
Wind Chill: 24°F , -4°C
Dew Point: 9°F , -13°C
Humidity: 37%
Barometer: 30.19 inHg , 1022.4 hPa
Clouds: Clear
Visibility: 10 miles , 16 km
2021/01/24 18:35 KXLL 241835Z AUTO 27008KT 10SM CLR 00/M13 A3019 RMK AO2
 
KIPT - Williamsport, Pennsylvania, USA
Distance from station: W 52mi, 84km
Updated: Sun, 24-Jan-2021 10:54am PST
Partly Cloudy
Partly Cloudy
 Wind from NNW
Wind: NNW 9 mph , 15 km/h
Temperature: 30°F , -1°C
Wind Chill: 22°F , -6°C
Dew Point: 9°F , -13°C
Humidity: 40%
Barometer: 30.20 inHg , 1022.7 hPa
Clouds: Partly Cloudy
Visibility: 10 miles , 16 km
Cloud details: Partly Cloudy 10000 ft
2021/01/24 18:54 KIPT 241854Z 33008KT 10SM SCT100 M01/M13 A3020 RMK AO2 SLP233 T10061133
KSEG - Selinsgrove, Pennsylvania, USA
Distance from station: WSW 57mi, 92km
Updated: Sun, 24-Jan-2021 10:53am PST
Mostly Cloudy
Mostly Cloudy
 Wind from varies
Wind: varies 5 mph , 7 km/h
Temperature: 30°F , -1°C
Wind Chill: 25°F , -4°C
Dew Point: 9°F , -13°C
Humidity: 40%
Barometer: 30.21 inHg , 1023 hPa
Clouds: Mostly Cloudy
Visibility: 10 miles , 16 km
Cloud details: Mostly Cloudy 11000 ft
2021/01/24 18:53 KSEG 241853Z AUTO VRB04KT 10SM BKN110 M01/M13 A3021 RMK AO2 SLP235 T10061128
 
KRDG - Reading, Pennsylvania, USA
Distance from station: S 59mi, 95km
Updated: Sun, 24-Jan-2021 10:54am PST
Few Clouds
Few Clouds
 Wind from WNW
Wind: WNW 12 mph , 19 km/h
Temperature: 34°F , 1°C
Wind Chill: 25°F , -4°C
Dew Point: 9°F , -13°C
Humidity: 35%
Barometer: 30.19 inHg , 1022.4 hPa
Clouds: Few Clouds
Visibility: 10 miles , 16 km
Cloud details: Few Clouds 11000 ft
2021/01/24 18:54 KRDG 241854Z 29010KT 10SM FEW110 01/M13 A3019 RMK AO2 SLP231 T00111128
KUKT - Quakertown Arp, Pennsylvania, USA
Distance from station: SSE 61mi, 98km
Updated: Sun, 24-Jan-2021 10:55am PST
Clear
Clear
 Wind from W
Wind: W 9 mph , 15 km/h, Gust: 18 mph , 30 km/h
Temperature: 32°F , 0°C
Wind Chill: 24°F , -4°C
Dew Point: 7°F , -14°C
Humidity: 34%
Barometer: 30.17 inHg , 1021.7 hPa
Clouds: Clear
Visibility: 10 miles , 16 km
2021/01/24 18:55 KUKT 241855Z AUTO 28008G16KT 250V320 10SM CLR 00/M14 A3017 RMK A01
 
K12N - Andover, New Jersey, USA
Distance from station: ESE 63mi, 101km
Updated: Sun, 24-Jan-2021 10:54am PST

 Wind from N
Wind: N 10 mph , 17 km/h, Gust: 21 mph , 33 km/h
Temperature: 30°F , -1°C
Wind Chill: 21°F , -6°C
Dew Point: 3°F , -16°C
Humidity: 31%
Barometer: 30.13 inHg , 1020.3 hPa
2021/01/24 18:54 K12N 241854Z AUTO 35009G18KT M01/M16 A3013 RMK AO1 SLP215 T10111156 $
KMUI - Muir Aaf/Indiant, Pennsylvania, USA
Distance from station: SSW 65mi, 105km
Updated: Wed, 20-Jan-2021 11:02am PST
NOT Current
Mostly Cloudy
Mostly Cloudy
 Wind from NW
Wind: NW 10 mph , 17 km/h, Gust: 26 mph , 43 km/h
Temperature: 34°F , 1°C
Wind Chill: 26°F , -3°C
Dew Point: 14°F , -10°C
Humidity: 44%
Barometer: 30.03 inHg , 1016.9 hPa
Clouds: Mostly Cloudy
Visibility: 10 miles , 16 km
Cloud details: Few Clouds 4000 ft
Mostly Cloudy 5500 ft
2021/01/20 19:02 KMUI 201902Z 31009G23KT 10SM FEW040 BKN055 01/M10 A3003 RMK AO2A SNE02 SLP177
 
KFWN - Sussex, New Jersey, USA
Distance from station: E 66mi, 107km
Updated: Sun, 24-Jan-2021 10:53am PST
Clear
Clear
 
Temperature: 30°F , -1°C
Dew Point: 5°F , -15°C
Humidity: 34%
Barometer: 30.13 inHg , 1020.3 hPa
Clouds: Clear
Visibility: 10 miles , 16 km
2021/01/24 18:53 KFWN 241853Z AUTO 10SM CLR M01/M15 A3013 RMK AO2 SLP206 T10111150 $
KMSV - Monticello, New York, USA
Distance from station: ENE 67mi, 108km
Updated: Sun, 24-Jan-2021 9:56am PST
Clear
Clear
 Wind from WNW
Wind: WNW 12 mph , 19 km/h, Gust: 24 mph , 39 km/h
Temperature: 25°F , -4°C
Wind Chill: 14°F , -10°C
Dew Point: 7°F , -14°C
Humidity: 46%
Barometer: 30.08 inHg , 1018.6 hPa
Clouds: Clear
Visibility: 10 miles , 16 km
2021/01/24 17:56 KMSV 241756Z AUTO 30010G21KT 10SM CLR M04/M14 A3008 RMK AO2 SLP207 T10441144 11044 21122 58019 FZRANO
 
KBGM - Binghamton, New York, USA
Distance from station: N 69mi, 111km
Updated: Sun, 24-Jan-2021 10:53am PST
Mostly Cloudy
Mostly Cloudy
 Wind from NW
Wind: NW 12 mph , 19 km/h, Gust: 20 mph , 31 km/h
Temperature: 18°F , -8°C
Wind Chill: 5°F , -15°C
Dew Point: 7°F , -14°C
Humidity: 62%
Barometer: 30.12 inHg , 1020 hPa
Clouds: Mostly Cloudy
Visibility: 10 miles , 16 km
Cloud details: Mostly Cloudy 2400 ft
2021/01/24 18:53 KBGM 241853Z 32010G17KT 10SM BKN024 M08/M14 A3012 RMK AO2 SLP228 T10781139
KPTW - Pottstown, Pennsylvania, USA
Distance from station: SSE 71mi, 114km
Updated: Sun, 24-Jan-2021 10:54am PST
Clear
Clear
 Wind from WNW
Wind: WNW 12 mph , 19 km/h, Gust: 17 mph , 28 km/h
Temperature: 32°F , 0°C
Wind Chill: 23°F , -5°C
Dew Point: 9°F , -13°C
Humidity: 37%
Barometer: 30.20 inHg , 1022.7 hPa
Clouds: Clear
Visibility: 10 miles , 16 km
2021/01/24 18:54 KPTW 241854Z AUTO 30010G15KT 10SM CLR 00/M13 A3020 RMK AO2 SLP228 T00001133
 
KDYL - Doylestown, Pennsylvania, USA
Distance from station: SE 74mi, 119km
Updated: Sun, 24-Jan-2021 10:54am PST
Clear
Clear
 Wind from NW
Wind: NW 12 mph , 19 km/h, Gust: 20 mph , 31 km/h
Temperature: 34°F , 1°C
Wind Chill: 25°F , -4°C
Dew Point: 7°F , -14°C
Humidity: 32%
Barometer: 30.16 inHg , 1021.3 hPa
Clouds: Clear
Visibility: 10 miles , 16 km
2021/01/24 18:54 KDYL 241854Z AUTO 31010G17KT 270V340 10SM CLR 01/M14 A3016 RMK AO2 SLP221 T00111144
KSMQ - Somerville, New Jersey, USA
Distance from station: ESE 77mi, 124km
Updated: Sun, 24-Jan-2021 10:53am PST
Clear
Clear
 Wind from NW
Wind: NW 13 mph , 20 km/h, Gust: 20 mph , 31 km/h
Temperature: 34°F , 1°C
Wind Chill: 25°F , -4°C
Dew Point: 5°F , -15°C
Humidity: 29%
Barometer: 30.14 inHg , 1020.7 hPa
Clouds: Clear
Visibility: 10 miles , 16 km
2021/01/24 18:53 KSMQ 241853Z AUTO 31011G17KT 10SM CLR 01/M15 A3014 RMK AO2 SLP208 T00061150 $
 
KLNS - Lancaster, Pennsylvania, USA
Distance from station: SSW 79mi, 127km
Updated: Sun, 24-Jan-2021 10:53am PST
Clear
Clear
 Wind from NW
Wind: NW 9 mph , 15 km/h
Temperature: 32°F , 0°C
Wind Chill: 24°F , -4°C
Dew Point: 9°F , -13°C
Humidity: 37%
Barometer: 30.21 inHg , 1023 hPa
Clouds: Clear
Visibility: 10 miles , 16 km
2021/01/24 18:53 KLNS 241853Z 31008KT 10SM CLR 00/M13 A3021 RMK AO2 SLP233 T00001133
KELM - Elmira, New York, USA
Distance from station: NW 82mi, 132km
Updated: Sun, 24-Jan-2021 10:53am PST
Few Clouds
Few Clouds
 Wind from NNE
Wind: NNE 5 mph , 7 km/h
Temperature: 27°F , -3°C
Wind Chill: 21°F , -6°C
Dew Point: 10°F , -12°C
Humidity: 50%
Barometer: 30.19 inHg , 1022.4 hPa
Clouds: Few Clouds
Visibility: 10 miles , 16 km
Cloud details: Few Clouds 3300 ft
2021/01/24 18:53 KELM 241853Z 02004KT 10SM FEW033 M03/M12 A3019 RMK AO2 SLP237 T10281122
 
KLOM - Philly Wings F, Pennsylvania, USA
Distance from station: SSE 82mi, 132km
Updated: Sun, 24-Jan-2021 10:35am PST
Clear
Clear
 Wind from NW
Wind: NW 12 mph , 19 km/h, Gust: 18 mph , 30 km/h
Temperature: 32°F , 0°C
Wind Chill: 23°F , -5°C
Dew Point: 9°F , -13°C
Humidity: 37%
Barometer: 30.19 inHg , 1022.4 hPa
Clouds: Clear
Visibility: 10 miles , 16 km
2021/01/24 18:35 KLOM 241835Z AUTO 31010G16KT 10SM CLR 00/M13 A3019 RMK AO2 T00041131
KMMU - Morristown Muni, New Jersey, USA
Distance from station: ESE 83mi, 134km
Updated: Sun, 24-Jan-2021 10:50am PST
Partly Cloudy
Partly Cloudy
 Wind from NW
Wind: NW 17 mph , 28 km/h, Gust: 29 mph , 46 km/h
Temperature: 32°F , 0°C
Wind Chill: 21°F , -6°C
Dew Point: 9°F , -13°C
Humidity: 37%
Barometer: 30.13 inHg , 1020.3 hPa
Clouds: Partly Cloudy
Visibility: 10 miles , 16 km
Cloud details: Partly Cloudy 25000 ft
2021/01/24 18:50 KMMU 241850Z 32015G25KT 10SM SCT250 00/M13 A3013

Metar display script from Saratoga-Weather.org